Terminal Aerodrome Forecast
Issued by NWS

Home | Current Version | Previous Version | Text Only | Print | Product List | Glossary On
Versions: 1 2 3 4 5 6 7 8 9 10 11 12 13 14 15 16 17 18 19 20 21 22
000
FTUS46 KPDT 220047 AAA
TAFRDM
TAF AMD
KRDM 220047Z 2201/2224 28009KT 6SM -RASN BR BKN035 BKN050
      TEMPO 2201/2204 3SM -SN OVC025
     FM220700 VRB04KT P6SM SCT050 OVC100=

USA.gov is the U.S. government's official web portal to all federal, state and local government web resources and services.